createdAt,value
2023-01-29T00:01:38.520Z,3.40
2023-01-29T00:04:06.024Z,3.40
2023-01-29T00:06:33.204Z,3.40
2023-01-29T00:09:00.254Z,3.40
2023-01-29T00:11:27.288Z,3.40
2023-01-29T00:13:54.349Z,3.40
2023-01-29T00:16:21.264Z,3.40
2023-01-29T00:18:48.229Z,3.40
2023-01-29T00:21:18.245Z,3.40
2023-01-29T00:23:45.789Z,3.40
2023-01-29T00:26:13.363Z,3.30
2023-01-29T00:28:40.346Z,3.40
2023-01-29T00:31:19.011Z,3.40
2023-01-29T00:33:46.240Z,3.30
2023-01-29T00:36:14.840Z,3.40
2023-01-29T00:38:41.769Z,3.30
2023-01-29T00:41:31.433Z,3.30
2023-01-29T00:44:18.132Z,3.20
2023-01-29T00:46:45.060Z,3.20
2023-01-29T00:49:12.289Z,3.20
2023-01-29T00:51:40.166Z,3.20
2023-01-29T00:54:07.315Z,3.10
2023-01-29T00:56:36.753Z,3.10
2023-01-29T00:59:04.457Z,3.00
2023-01-29T01:01:57.460Z,2.90
2023-01-29T01:04:24.498Z,2.90
2023-01-29T01:06:51.400Z,2.90
2023-01-29T01:09:36.757Z,2.80
2023-01-29T01:12:03.733Z,2.70
2023-01-29T01:14:30.595Z,2.60
2023-01-29T01:16:57.506Z,2.50
2023-01-29T01:19:24.392Z,2.50
2023-01-29T01:21:51.287Z,2.40
2023-01-29T01:24:18.398Z,2.30
2023-01-29T01:26:45.363Z,2.20
2023-01-29T01:29:12.966Z,2.10
2023-01-29T01:31:40.242Z,2.10
2023-01-29T01:34:07.169Z,2.00
2023-01-29T01:36:34.111Z,1.90
2023-01-29T01:39:01.258Z,1.80
2023-01-29T01:41:29.470Z,1.80
2023-01-29T01:44:02.264Z,1.70
2023-01-29T01:46:31.568Z,1.70
2023-01-29T01:49:13.171Z,1.70
2023-01-29T01:51:45.358Z,1.60
2023-01-29T01:54:20.538Z,1.60
2023-01-29T01:56:56.537Z,1.50
2023-01-29T01:59:24.109Z,1.50
2023-01-29T02:01:54.487Z,1.50
2023-01-29T02:04:43.217Z,1.50
2023-01-29T02:07:32.723Z,1.40
2023-01-29T02:10:11.619Z,1.50
2023-01-29T02:12:38.788Z,1.40
2023-01-29T02:15:06.586Z,1.40
2023-01-29T02:17:33.732Z,1.40
2023-01-29T02:20:03.675Z,1.40
2023-01-29T02:22:59.382Z,1.40
2023-01-29T02:25:48.960Z,1.40
2023-01-29T02:28:22.043Z,1.40
2023-01-29T02:30:55.045Z,1.40
2023-01-29T02:33:33.991Z,1.40
2023-01-29T02:36:23.207Z,1.40
2023-01-29T02:39:04.818Z,1.40
2023-01-29T02:42:02.818Z,1.40
2023-01-29T02:44:35.488Z,1.30
2023-01-29T02:47:24.684Z,1.30
2023-01-29T02:49:54.556Z,1.20
2023-01-29T02:52:38.377Z,1.30
2023-01-29T02:55:13.764Z,1.20
2023-01-29T02:57:44.755Z,1.10
2023-01-29T03:00:20.634Z,1.10
2023-01-29T03:03:08.294Z,1.10
2023-01-29T03:05:51.259Z,1.10
2023-01-29T03:08:45.707Z,1.10
2023-01-29T03:11:14.987Z,1.10
2023-01-29T03:13:47.897Z,1.10
2023-01-29T03:16:22.058Z,1.10
2023-01-29T03:18:58.676Z,1.10
2023-01-29T03:21:51.649Z,1.10
2023-01-29T03:24:54.871Z,1.10
2023-01-29T03:27:45.893Z,1.10
2023-01-29T03:30:34.990Z,1.10
2023-01-29T03:33:06.529Z,1.10
2023-01-29T03:35:43.449Z,1.10
2023-01-29T03:38:12.034Z,1.10
2023-01-29T03:40:53.795Z,1.20
2023-01-29T03:43:26.668Z,1.30
2023-01-29T03:46:33.242Z,1.30
2023-01-29T03:49:08.456Z,1.30
2023-01-29T03:52:00.870Z,1.40
2023-01-29T03:54:44.001Z,1.40
2023-01-29T03:57:35.377Z,1.40
2023-01-29T04:00:19.148Z,1.40
2023-01-29T04:03:16.283Z,1.50
2023-01-29T04:05:50.802Z,1.50
2023-01-29T04:08:26.148Z,1.50
2023-01-29T04:10:56.811Z,1.60
2023-01-29T04:13:25.749Z,1.60
2023-01-29T04:15:58.523Z,1.60
2023-01-29T04:18:25.841Z,1.60
2023-01-29T04:20:53.560Z,1.60
2023-01-29T04:23:26.111Z,1.70
2023-01-29T04:26:26.437Z,1.70
2023-01-29T04:29:03.264Z,1.80
2023-01-29T04:31:38.802Z,1.80
2023-01-29T04:34:13.338Z,1.70
2023-01-29T04:36:46.349Z,1.80
2023-01-29T04:39:18.267Z,1.80
2023-01-29T04:42:07.337Z,1.80
2023-01-29T04:44:40.604Z,1.80
2023-01-29T04:47:19.369Z,1.80
2023-01-29T04:49:55.102Z,1.80
2023-01-29T04:52:45.578Z,1.80
2023-01-29T04:55:30.494Z,1.80
2023-01-29T04:58:00.383Z,1.90
2023-01-29T05:00:32.372Z,1.90
2023-01-29T05:03:01.775Z,1.90
2023-01-29T05:05:30.770Z,2.00
2023-01-29T05:07:59.346Z,2.00
2023-01-29T05:10:26.910Z,2.00
2023-01-29T05:13:00.773Z,2.00
2023-01-29T05:15:39.826Z,1.90
2023-01-29T05:18:09.134Z,1.90
2023-01-29T05:20:40.008Z,1.90
2023-01-29T05:23:18.205Z,1.80
2023-01-29T05:25:46.883Z,1.80
2023-01-29T05:28:17.370Z,1.80
2023-01-29T05:30:49.195Z,1.90
2023-01-29T05:33:17.823Z,1.90
2023-01-29T05:35:45.170Z,1.90
2023-01-29T05:38:12.757Z,1.80
2023-01-29T05:40:39.717Z,1.80
2023-01-29T05:43:13.154Z,1.70
2023-01-29T05:45:40.048Z,1.70
2023-01-29T05:48:06.924Z,1.80
2023-01-29T05:50:33.887Z,1.80
2023-01-29T05:53:01.956Z,1.90
2023-01-29T05:55:29.772Z,2.00
2023-01-29T05:57:56.704Z,2.00
2023-01-29T06:00:23.961Z,2.10
2023-01-29T06:02:50.939Z,2.10
2023-01-29T06:05:17.990Z,2.10
2023-01-29T06:07:45.592Z,2.00
2023-01-29T06:10:17.900Z,2.10
2023-01-29T06:12:45.123Z,2.10
2023-01-29T06:15:15.512Z,2.10
2023-01-29T06:17:42.892Z,2.10
2023-01-29T06:20:10.522Z,2.00
2023-01-29T06:22:37.430Z,2.00
2023-01-29T06:25:04.764Z,2.10
2023-01-29T06:27:31.667Z,2.10
2023-01-29T06:29:58.554Z,2.10
2023-01-29T06:32:25.605Z,2.10
2023-01-29T06:34:53.360Z,2.20
2023-01-29T06:37:20.259Z,2.10
2023-01-29T06:39:47.143Z,2.20
2023-01-29T06:42:14.054Z,2.20
2023-01-29T06:44:40.957Z,2.20
2023-01-29T06:47:07.831Z,2.30
2023-01-29T06:49:34.753Z,2.30
2023-01-29T06:52:01.664Z,2.30
2023-01-29T06:54:28.611Z,2.30
2023-01-29T06:56:56.340Z,2.30
2023-01-29T06:59:23.276Z,2.30
2023-01-29T07:01:50.259Z,2.30
2023-01-29T07:04:17.240Z,2.30
2023-01-29T07:06:44.278Z,2.40
2023-01-29T07:09:14.033Z,2.40
2023-01-29T07:11:41.157Z,2.40
2023-01-29T07:14:08.310Z,2.50
2023-01-29T07:16:35.277Z,2.50
2023-01-29T07:19:02.444Z,2.40
2023-01-29T07:21:29.555Z,2.50
2023-01-29T07:23:56.588Z,2.50
2023-01-29T07:26:23.725Z,2.60
2023-01-29T07:28:50.701Z,2.60
2023-01-29T07:31:17.896Z,2.60
2023-01-29T07:33:45.544Z,2.60
2023-01-29T07:36:13.508Z,2.60
2023-01-29T07:38:40.475Z,2.70
2023-01-29T07:41:07.565Z,2.70
2023-01-29T07:43:34.567Z,2.70
2023-01-29T07:46:05.342Z,2.70
2023-01-29T07:48:32.443Z,2.70
2023-01-29T07:50:59.523Z,2.70
2023-01-29T07:53:27.145Z,2.70
2023-01-29T07:55:54.049Z,2.80
2023-01-29T07:58:21.119Z,2.80
2023-01-29T08:00:48.111Z,2.80
2023-01-29T08:03:18.169Z,2.80
2023-01-29T08:05:45.873Z,2.90
2023-01-29T08:08:13.342Z,2.90
2023-01-29T08:10:41.006Z,2.90
2023-01-29T08:13:08.708Z,3.00
2023-01-29T08:18:22.914Z,3.00
2023-01-29T08:20:49.794Z,3.00
2023-01-29T08:23:16.858Z,3.00
2023-01-29T08:25:44.020Z,3.00
2023-01-29T08:28:11.887Z,3.00
2023-01-29T08:30:39.055Z,3.00
2023-01-29T08:33:06.117Z,3.00
2023-01-29T08:35:33.123Z,3.00
2023-01-29T08:38:01.960Z,3.00
2023-01-29T08:40:34.093Z,3.00
2023-01-29T08:43:04.092Z,3.00
2023-01-29T08:45:37.284Z,3.00
2023-01-29T08:48:04.924Z,3.00
2023-01-29T08:50:33.060Z,3.10
2023-01-29T08:53:01.553Z,3.00
2023-01-29T08:55:29.479Z,3.00
2023-01-29T08:57:59.680Z,3.00
2023-01-29T09:00:26.718Z,3.10
2023-01-29T09:02:53.652Z,3.10
2023-01-29T09:05:20.663Z,3.10
2023-01-29T09:07:47.630Z,3.10
2023-01-29T09:10:15.453Z,3.10
2023-01-29T09:12:42.351Z,3.10
2023-01-29T09:15:09.822Z,3.10
2023-01-29T09:17:36.764Z,3.20
2023-01-29T09:20:06.272Z,3.20
2023-01-29T09:22:33.561Z,3.20
2023-01-29T09:25:00.454Z,3.20
2023-01-29T09:27:27.331Z,3.00
2023-01-29T09:29:54.254Z,3.20
2023-01-29T09:32:49.728Z,3.20
2023-01-29T09:35:09.240Z,3.30
2023-01-29T09:37:37.396Z,3.30
2023-01-29T09:40:04.902Z,3.30
2023-01-29T09:42:41.980Z,3.30
2023-01-29T09:45:16.612Z,3.30
2023-01-29T09:47:44.854Z,3.30
2023-01-29T09:50:28.382Z,3.30
2023-01-29T09:52:58.331Z,3.40
2023-01-29T09:55:27.450Z,3.40
2023-01-29T09:57:57.380Z,3.40
2023-01-29T10:00:38.170Z,3.40
2023-01-29T10:03:25.351Z,3.40
2023-01-29T10:06:24.177Z,3.40
2023-01-29T10:09:09.841Z,3.40
2023-01-29T10:11:58.018Z,3.50
2023-01-29T10:14:43.500Z,3.50
2023-01-29T10:17:50.551Z,3.50
2023-01-29T10:20:35.893Z,3.50
2023-01-29T10:23:27.218Z,3.50
2023-01-29T10:25:54.698Z,3.40
2023-01-29T10:28:52.474Z,3.50
2023-01-29T10:31:25.264Z,3.50
2023-01-29T10:34:02.535Z,3.50
2023-01-29T10:36:35.689Z,3.60
2023-01-29T10:39:02.671Z,3.50
2023-01-29T10:42:06.660Z,3.60
2023-01-29T10:44:42.541Z,3.70
2023-01-29T10:47:12.489Z,3.60
2023-01-29T10:50:01.233Z,3.60
2023-01-29T10:52:50.026Z,3.60
2023-01-29T10:55:19.769Z,3.60
2023-01-29T10:57:52.633Z,3.60
2023-01-29T11:00:24.478Z,3.70
2023-01-29T11:02:52.584Z,3.70
2023-01-29T11:05:41.207Z,3.70
2023-01-29T11:08:23.549Z,3.80
2023-01-29T11:11:02.452Z,3.80
2023-01-29T11:13:34.957Z,3.70
2023-01-29T11:16:04.462Z,3.70
2023-01-29T11:18:59.713Z,3.80
2023-01-29T11:21:28.762Z,3.80
2023-01-29T11:24:15.540Z,3.80
2023-01-29T11:26:43.741Z,3.80
2023-01-29T11:29:28.855Z,3.90
2023-01-29T11:31:58.786Z,3.90
2023-01-29T11:34:27.838Z,3.80
2023-01-29T11:36:59.306Z,3.70
2023-01-29T11:39:27.988Z,3.70
2023-01-29T11:42:00.627Z,3.70
2023-01-29T11:44:29.275Z,3.70
2023-01-29T11:46:59.510Z,3.70
2023-01-29T11:49:36.086Z,3.60
2023-01-29T11:52:07.088Z,3.60
2023-01-29T11:54:55.066Z,3.60
2023-01-29T11:57:34.455Z,3.70
2023-01-29T12:00:29.364Z,3.70
2023-01-29T12:02:59.219Z,3.70
2023-01-29T12:05:27.267Z,3.70
2023-01-29T12:08:00.134Z,3.70
2023-01-29T12:10:37.847Z,3.70
2023-01-29T12:13:11.003Z,3.70
2023-01-29T12:15:39.687Z,3.60
2023-01-29T12:18:15.356Z,3.50
2023-01-29T12:20:57.573Z,3.50
2023-01-29T12:23:46.722Z,3.50
2023-01-29T12:26:37.505Z,3.50
2023-01-29T12:29:23.241Z,3.60
2023-01-29T12:32:39.597Z,3.50
2023-01-29T12:35:35.865Z,3.50
2023-01-29T12:38:05.842Z,3.40
2023-01-29T12:40:48.379Z,3.40
2023-01-29T12:43:24.308Z,3.40
2023-01-29T12:45:55.433Z,3.40
2023-01-29T12:48:38.103Z,3.40
2023-01-29T12:51:19.584Z,3.40
2023-01-29T12:54:20.536Z,3.40
2023-01-29T12:56:56.124Z,3.40
2023-01-29T12:59:43.238Z,3.40
2023-01-29T13:02:39.691Z,3.40
2023-01-29T13:05:41.908Z,3.40
2023-01-29T13:08:29.486Z,3.40
2023-01-29T13:11:02.061Z,3.40
2023-01-29T13:13:54.024Z,3.40
2023-01-29T13:16:28.411Z,3.50
2023-01-29T13:19:04.827Z,3.50
2023-01-29T13:21:41.695Z,3.50
2023-01-29T13:24:39.500Z,3.50
2023-01-29T13:27:07.125Z,3.60
2023-01-29T13:29:34.499Z,3.60
2023-01-29T13:32:05.787Z,3.50
2023-01-29T13:34:37.515Z,3.50
2023-01-29T13:37:17.002Z,3.60
2023-01-29T13:39:50.470Z,3.60
2023-01-29T13:42:25.824Z,3.60
2023-01-29T13:44:56.221Z,3.60
2023-01-29T13:47:32.058Z,3.60
2023-01-29T13:50:09.401Z,3.60
2023-01-29T13:52:45.202Z,3.60
2023-01-29T13:55:15.521Z,3.60
2023-01-29T13:57:46.230Z,3.50
2023-01-29T14:00:22.414Z,3.40
2023-01-29T14:02:55.276Z,3.40
2023-01-29T14:05:31.483Z,3.40
2023-01-29T14:07:59.570Z,3.30
2023-01-29T14:10:32.026Z,3.40
2023-01-29T14:13:04.858Z,3.40
2023-01-29T14:15:35.171Z,3.40
2023-01-29T14:18:18.829Z,3.30
2023-01-29T14:20:49.066Z,3.30
2023-01-29T14:23:25.019Z,3.20
2023-01-29T14:25:52.603Z,3.20
2023-01-29T14:28:29.289Z,3.30
2023-01-29T14:30:57.815Z,3.20
2023-01-29T14:33:41.683Z,3.10
2023-01-29T14:36:15.846Z,3.00
2023-01-29T14:38:52.601Z,3.00
2023-01-29T14:41:31.340Z,3.00
2023-01-29T14:44:36.606Z,3.00
2023-01-29T14:47:04.955Z,2.90
2023-01-29T14:49:50.616Z,2.90
2023-01-29T14:52:20.793Z,2.80
2023-01-29T14:54:50.787Z,2.90
2023-01-29T14:57:19.197Z,2.80
2023-01-29T14:59:55.496Z,2.80
2023-01-29T15:02:26.534Z,2.80
2023-01-29T15:04:59.239Z,2.70
2023-01-29T15:07:35.075Z,2.70
2023-01-29T15:10:40.064Z,2.60
2023-01-29T15:13:47.712Z,2.60
2023-01-29T15:16:32.777Z,2.50
2023-01-29T15:19:16.661Z,2.50
2023-01-29T15:22:23.728Z,2.30
2023-01-29T15:25:07.388Z,2.20
2023-01-29T15:27:35.163Z,2.10
2023-01-29T15:30:05.803Z,2.10
2023-01-29T15:32:36.240Z,2.00
2023-01-29T15:35:09.405Z,1.90
2023-01-29T15:37:37.904Z,1.80
2023-01-29T15:40:12.358Z,1.70
2023-01-29T15:42:46.782Z,1.70
2023-01-29T15:45:31.255Z,1.70
2023-01-29T15:48:08.766Z,1.70
2023-01-29T15:50:42.041Z,1.60
2023-01-29T15:53:18.322Z,1.60
2023-01-29T15:55:47.067Z,1.50
2023-01-29T15:58:28.859Z,1.40
2023-01-29T16:00:58.288Z,1.40
2023-01-29T16:03:28.518Z,1.30
2023-01-29T16:05:56.444Z,1.30
2023-01-29T16:08:25.449Z,1.20
2023-01-29T16:11:04.636Z,1.20
2023-01-29T16:13:38.401Z,1.10
2023-01-29T16:16:45.153Z,1.00
2023-01-29T16:19:27.155Z,1.00
2023-01-29T16:22:04.785Z,0.90
2023-01-29T16:24:35.747Z,1.00
2023-01-29T16:27:11.876Z,1.00
2023-01-29T16:29:39.708Z,0.90
2023-01-29T16:32:08.755Z,0.90
2023-01-29T16:34:42.356Z,0.90
2023-01-29T16:37:21.728Z,0.90
2023-01-29T16:39:52.984Z,0.90
2023-01-29T16:42:26.384Z,0.90
2023-01-29T16:44:57.166Z,0.90
2023-01-29T16:47:30.614Z,1.00
2023-01-29T16:50:17.952Z,0.90
2023-01-29T16:53:02.364Z,0.90
2023-01-29T16:55:46.089Z,0.90
2023-01-29T16:58:21.712Z,0.80
2023-01-29T17:01:15.159Z,0.90
2023-01-29T17:03:43.379Z,0.90
2023-01-29T17:06:15.892Z,0.90
2023-01-29T17:08:44.684Z,0.90
2023-01-29T17:11:23.178Z,1.00
2023-01-29T17:13:50.752Z,1.00
2023-01-29T17:16:30.681Z,0.90
2023-01-29T17:18:59.999Z,0.90
2023-01-29T17:21:29.802Z,0.90
2023-01-29T17:23:57.368Z,0.90
2023-01-29T17:26:27.070Z,0.90
2023-01-29T17:28:55.505Z,0.90
2023-01-29T17:31:23.786Z,0.80
2023-01-29T17:33:51.766Z,0.80
2023-01-29T17:36:19.528Z,0.80
2023-01-29T17:38:46.809Z,0.70
2023-01-29T17:41:27.715Z,0.70
2023-01-29T17:43:55.068Z,0.70
2023-01-29T17:46:23.433Z,0.70
2023-01-29T17:48:51.643Z,0.70
2023-01-29T17:51:19.645Z,0.70
2023-01-29T17:53:47.739Z,0.60
2023-01-29T17:56:23.858Z,0.60
2023-01-29T17:58:51.748Z,0.60
2023-01-29T18:01:19.788Z,0.60
2023-01-29T18:03:47.163Z,0.60
2023-01-29T18:06:26.691Z,0.50
2023-01-29T18:08:54.543Z,0.50
2023-01-29T18:11:22.284Z,0.50
2023-01-29T18:13:50.271Z,0.50
2023-01-29T18:16:26.542Z,0.50
2023-01-29T18:18:54.696Z,0.40
2023-01-29T18:21:23.862Z,0.40
2023-01-29T18:23:51.352Z,0.40
2023-01-29T18:26:20.627Z,0.30
2023-01-29T18:28:48.487Z,0.30
2023-01-29T18:31:16.141Z,0.30
2023-01-29T18:33:45.526Z,0.30
2023-01-29T18:36:14.221Z,0.20
2023-01-29T18:38:41.875Z,0.20
2023-01-29T18:41:11.295Z,0.20
2023-01-29T18:43:40.200Z,0.40
2023-01-29T18:46:08.374Z,0.10
2023-01-29T18:48:36.782Z,0.10
2023-01-29T18:51:05.632Z,0.10
2023-01-29T18:53:33.634Z,0.10
2023-01-29T18:56:05.637Z,0.10
2023-01-29T18:58:36.512Z,0.10
2023-01-29T19:01:10.360Z,0.00
2023-01-29T19:03:41.868Z,0.00
2023-01-29T19:06:11.679Z,0.10
2023-01-29T19:08:41.023Z,0.10
2023-01-29T19:11:10.319Z,0.00
2023-01-29T19:13:38.234Z,0.00
2023-01-29T19:16:10.568Z,0.00
2023-01-29T19:18:39.591Z,0.00
2023-01-29T19:21:11.419Z,-0.10
2023-01-29T19:23:39.450Z,-0.10
2023-01-29T19:26:07.517Z,-0.10
2023-01-29T19:28:35.794Z,-0.10
2023-01-29T19:31:05.402Z,-0.10
2023-01-29T19:33:33.614Z,-0.20
2023-01-29T19:36:03.163Z,-0.20
2023-01-29T19:38:33.629Z,-0.20
2023-01-29T19:41:01.632Z,-0.20
2023-01-29T19:43:32.181Z,-0.30
2023-01-29T19:46:03.163Z,-0.20
2023-01-29T19:48:31.179Z,-0.30
2023-01-29T19:51:04.772Z,-0.30
2023-01-29T19:53:33.691Z,-0.30
2023-01-29T19:56:09.890Z,-0.30
2023-01-29T19:58:38.338Z,-0.40
2023-01-29T20:01:16.337Z,-0.40
2023-01-29T20:03:47.777Z,-0.30
2023-01-29T20:06:20.900Z,-0.30
2023-01-29T20:08:48.467Z,-0.30
2023-01-29T20:11:19.292Z,-0.40
2023-01-29T20:13:54.955Z,-0.40
2023-01-29T20:16:23.448Z,-0.40
2023-01-29T20:18:55.030Z,-0.40
2023-01-29T20:21:42.855Z,-0.40
2023-01-29T20:24:13.592Z,-0.40
2023-01-29T20:26:41.669Z,-0.50
2023-01-29T20:29:09.831Z,-0.50
2023-01-29T20:31:43.332Z,-0.50
2023-01-29T20:34:11.878Z,-0.50
2023-01-29T20:36:39.656Z,-0.50
2023-01-29T20:39:07.516Z,-0.50
2023-01-29T20:41:35.737Z,-0.50
2023-01-29T20:44:03.429Z,-0.50
2023-01-29T20:46:31.176Z,-0.50
2023-01-29T20:48:58.596Z,-0.50
2023-01-29T20:51:25.890Z,-0.50
2023-01-29T20:53:56.055Z,-0.50
2023-01-29T20:56:36.274Z,-0.50
2023-01-29T20:59:12.760Z,-0.50
2023-01-29T21:01:40.743Z,-0.50
2023-01-29T21:04:09.800Z,-0.60
2023-01-29T21:06:38.580Z,-0.60
2023-01-29T21:09:06.730Z,-0.60
2023-01-29T21:11:36.103Z,-0.60
2023-01-29T21:14:03.937Z,-0.60
2023-01-29T21:16:31.963Z,-0.60
2023-01-29T21:18:59.872Z,-0.60
2023-01-29T21:21:27.630Z,-0.70
2023-01-29T21:23:55.301Z,-0.60
2023-01-29T21:26:24.002Z,-0.70
2023-01-29T21:28:51.207Z,-0.70
2023-01-29T21:31:20.450Z,-0.70
2023-01-29T21:33:47.650Z,-0.70
2023-01-29T21:36:14.986Z,-0.60
2023-01-29T21:38:42.328Z,-0.60
2023-01-29T21:41:10.136Z,-0.70
2023-01-29T21:43:37.598Z,-0.70
2023-01-29T21:46:12.163Z,-0.70
2023-01-29T21:48:40.301Z,-0.70
2023-01-29T21:51:08.430Z,-0.70
2023-01-29T21:53:36.866Z,-0.70
2023-01-29T21:56:05.757Z,-0.70
2023-01-29T21:58:32.865Z,-0.70
2023-01-29T22:01:18.570Z,-0.70
2023-01-29T22:03:47.632Z,-0.70
2023-01-29T22:06:15.295Z,-0.70
2023-01-29T22:08:42.469Z,-0.70
2023-01-29T22:11:09.681Z,-0.70
2023-01-29T22:13:37.092Z,-0.70
2023-01-29T22:16:06.051Z,-0.70
2023-01-29T22:18:33.400Z,-0.70
2023-01-29T22:21:02.984Z,-0.70
2023-01-29T22:23:30.961Z,-0.70
2023-01-29T22:26:09.929Z,-0.70
2023-01-29T22:28:37.171Z,-0.70
2023-01-29T22:31:05.362Z,-0.70
2023-01-29T22:33:33.560Z,-0.80
2023-01-29T22:36:00.860Z,-0.70
2023-01-29T22:38:27.871Z,-0.70
2023-01-29T22:40:56.444Z,-0.70
2023-01-29T22:43:26.052Z,-0.70
2023-01-29T22:45:53.015Z,-0.70
2023-01-29T22:48:19.904Z,-0.70
2023-01-29T22:50:53.910Z,-0.70
2023-01-29T22:53:20.855Z,-0.70
2023-01-29T22:55:55.459Z,-0.70
2023-01-29T22:58:22.400Z,-0.70
2023-01-29T23:00:52.174Z,-0.70
2023-01-29T23:03:19.139Z,-0.70
2023-01-29T23:05:46.028Z,-0.70
2023-01-29T23:08:12.958Z,-0.70
2023-01-29T23:10:40.157Z,-0.70
2023-01-29T23:13:07.187Z,-0.70
2023-01-29T23:15:34.161Z,-0.70
2023-01-29T23:18:01.281Z,-0.70
2023-01-29T23:20:28.171Z,-0.80
2023-01-29T23:22:55.059Z,-0.80
2023-01-29T23:25:22.175Z,-0.80
2023-01-29T23:27:49.043Z,-0.70
2023-01-29T23:30:16.286Z,-0.70
2023-01-29T23:32:43.472Z,-0.80
2023-01-29T23:35:10.498Z,-0.90
2023-01-29T23:37:37.375Z,-0.90
2023-01-29T23:40:04.601Z,-0.90
2023-01-29T23:42:31.478Z,-0.90
2023-01-29T23:44:58.372Z,-0.90
2023-01-29T23:47:25.223Z,-1.00
2023-01-29T23:49:53.247Z,-1.00
2023-01-29T23:52:20.333Z,-1.00
2023-01-29T23:54:47.200Z,-0.90
2023-01-29T23:57:14.085Z,-1.00
2023-01-29T23:59:41.010Z,-1.00
